VOHS Airport Information

Runway Information
Runway 09 Length 13976 ft width 197 ft
Elevation 1969 ft Threshold 0 ft Heading 90
Runway 27 Length 13976 ft Width 197 ft
Elevation 2024 ft Threshold 0 ft Heading 270
Airport Frequencies
Type APP Name Frequency 120.25 MHZ
Type APP Name Frequency 125.55 MHZ
Type ATIS Name Frequency 126.47 MHZ
Type CONTROL-1 Name Frequency 120.95 MHZ
Type CONTROL-2 Name Frequency 128.35 MHZ
Type CONTROL-3 Name Frequency 129.7 MHZ
Type DELIVERY Name Frequency 121.62 MHZ
Type GROUND Name Frequency 121.62 MHZ
Type SMC Name Frequency 121.85 MHZ
Type TOWER Name Frequency 118.45 MHZ
Airport Navaids
Airport Weather Information & NOTAM
ADDS - METARS form results

(0235 UTC 27 June 2019)
Data provider http://aviationweather.gov/metar/data/
 
METAR text: VOHS 270230Z 27016KT 6000 SCT015 27/23 Q1009 NOSIG
Conditions at: VOHS (RAJIV GANDHI INL, IN) observed 0230 UTC 27 June 2019
Temperature: 27.0°C (81°F)
Dewpoint: 23.0°C (73°F) [RH = 79%]
Pressure (altimeter): 29.79 inches Hg (1009.0 mb)
Winds: from the W (270 degrees) at 18 MPH (16 knots; 8.2 m/s)
Visibility: 4 miles ( 6 km)
Ceiling: at least 12,000 feet AGL
Clouds: scattered clouds at 1500 feet AGL
Weather: no significant weather observed at this time

METAR text: VOHS 270200Z 27010KT 6000 SCT015 27/22 Q1009 NOSIG
Conditions at: VOHS (RAJIV GANDHI INL, IN) observed 0200 UTC 27 June 2019
Temperature: 27.0°C (81°F)
Dewpoint: 22.0°C (72°F) [RH = 74%]
Pressure (altimeter): 29.79 inches Hg (1009.0 mb)
Winds: from the W (270 degrees) at 12 MPH (10 knots; 5.1 m/s)
Visibility: 4 miles ( 6 km)
Ceiling: at least 12,000 feet AGL
Clouds: scattered clouds at 1500 feet AGL
Weather: no significant weather observed at this time

Forecast for: VOHS (RAJIV GANDHI INL, IN)
Text: TAF VOHS 270200Z 2703/2712 29010KT 6000 SCT015 SCT025
Forecast period: 0300 to 1200 UTC 27 June 2019
Forecast type: FROM: standard forecast or significant change
Winds: from the WNW (290 degrees) at 12 MPH (10 knots; 5.1 m/s)
Visibility: 4 miles (6 km)
Ceiling: at least 12,000 feet AGL
Clouds: scattered clouds at 1500 feet AGL
scattered clouds at 2500 feet AGL
Weather: no significant weather forecast for this period
Text: TEMPO 2709/2712 3000 TSRA RA SCT010 FEW030CB BKN080
Forecast period: 0900 to 1200 UTC 27 June 2019
Forecast type: TEMPORARY: The following changes expected for less than half the time period
Visibility: 1.86 miles (2.99 km)
Ceiling: 8000 feet AGL
Clouds: scattered clouds at 1000 feet AGL
few clouds at 3000 feet AGL
broken clouds at 8000 feet AGL
Weather: TSRA RA  (rain associated with thunderstorm(s), moderate rain)